Northport, MI (49670)

9:25 AM EDT on June 29, 2017 (GMT -0400)
MMINTH | | Change Station
Active Advisory: Beach Hazard Statement

Elev 770 ft 45.14 °N, 85.65 °W | Updated 52 days ago

Overcast
Overcast
34.0 °F
Feels Like 28 °F
N
7.0
Wind Variable Wind from North

Today
High -- | Low -- °F
--% Chance of Precip.
Yesterday
High -- | Low -- °F
Precip. -- in
Pressure 29.69 in
Visibility 10.0 miles
Clouds Scattered Clouds 3300 ft
Overcast 3900 ft
Windchill 28 °F
Dew Point 22.0 °F
Humidity 59%
Rainfall in
Snow Depth Not available.
5:58 AM 9:33 PM
Waxing Crescent, 35% visible
METAR KCVX 291315Z AUTO 19008G16KT 10SM SCT033 OVC039 20/18 A2969 RMK AO2 T01980178
Pressure 29.69 in
Visibility 10.0 miles
Clouds Scattered Clouds 3300 ft
Overcast 3900 ft
Windchill 28 °F
Dew Point 22.0 °F
Humidity 59%
Rainfall in
Snow Depth Not available.
5:58 AM 9:33 PM
Waxing Crescent, 35% visible
METAR KCVX 291315Z AUTO 19008G16KT 10SM SCT033 OVC039 20/18 A2969 RMK AO2 T01980178

Get Your Daily Forecast Email!

Thanks for signing up!

Be on the lookout for a verification email in your inbox.

You'll start receiving severe weather alerts in your inbox..

×

10-Day Weather Forecast

Almanac

Astronomy

Jun. 29, 2017 Rise Set
Actual Time
Civil Twilight
Nautical Twilight
Astronomical Twilight
Moon
Length of Visible Light
Length of Day
Tomorrow will be .
, % of the Moon is Illuminated

Today's Extremes

State Highs State Lows

Community

WunderPhotos

Category 6

Welcome to Category 6. This is the collective home for Weather Underground's featured writeups by Dr. Jeff Masters (right), Bob Henson (left), Chris Burt, and other regular contributors.

Nearby

Air Quality

  Air Quality AQ Index Pollutant
Not available.

Snow Depth

Station Depth Elevation

Earthquake Activity

City Distance Mag. Time & Date
Minimum magnitude displayed is 2.5.

Coastal Water Temperatures

Place Temperature

Stations

Nearby Weather Stations

Station Location Temp. Windchill Dew Point Humidity Wind Precip. Elev Updated Type
                   

Watches & Warnings

Beach Hazard Statement
Issued: 3:57 AM EDT Jun. 29, 2017 – National Weather Service

... Beach hazards statement now in effect until 11 am EDT this
morning...

* hazards... strong currents and high waves.

* Timing... through 11 am this morning.

* Location... Lake Michigan beaches of northwest lower Michigan
from Manistee County through Leelanau County

Precautionary/preparedness actions...

A high swim risk means life threatening waves and currents are
expected. Stay out of the water and stay away from dangerous
areas like piers and breakwalls.